TimeMDT,TemperatureF,Dew PointF,Humidity,Sea Level PressureIn,VisibilityMPH,Wind Direction,Wind SpeedMPH,Gust SpeedMPH,PrecipitationIn,Events,Conditions,WindDirDegrees,DateUTC
12:15 AM,36.7,29.8,76,30.02,10.0,NW,31.1,39.1,N/A,,Clear,320,2013-10-05 06:15:00
12:35 AM,36.5,29.8,77,30.00,10.0,NW,34.5,44.9,N/A,,Clear,320,2013-10-05 06:35:00
12:55 AM,36.9,29.8,76,29.99,10.0,NNW,40.3,52.9,N/A,,Clear,330,2013-10-05 06:55:00
1:15 AM,37.0,30.0,76,30.02,10.0,NW,33.4,43.7,N/A,,Clear,310,2013-10-05 07:15:00
1:35 AM,37.2,30.2,76,30.03,10.0,NW,26.5,36.8,N/A,,Scattered Clouds,310,2013-10-05 07:35:00
1:55 AM,37.4,30.6,76,30.03,10.0,WNW,26.5,38.0,N/A,,Mostly Cloudy,300,2013-10-05 07:55:00
2:15 AM,37.8,30.4,75,30.03,10.0,WNW,27.6,36.8,N/A,,Overcast,300,2013-10-05 08:15:00
2:35 AM,37.8,30.6,75,30.04,10.0,WNW,29.9,39.1,N/A,,Overcast,300,2013-10-05 08:35:00
2:55 AM,37.6,30.2,75,30.04,10.0,WNW,23.0,35.7,N/A,,Overcast,300,2013-10-05 08:55:00
3:15 AM,37.6,29.5,73,30.04,10.0,WNW,26.5,35.7,N/A,,Overcast,300,2013-10-05 09:15:00
3:35 AM,37.4,28.9,71,30.03,10.0,NW,23.0,36.8,N/A,,Overcast,310,2013-10-05 09:35:00
3:55 AM,37.0,28.4,71,30.04,10.0,WNW,27.6,40.3,N/A,,Overcast,300,2013-10-05 09:55:00
4:15 AM,37.0,28.6,71,30.04,10.0,WNW,26.5,38.0,N/A,,Overcast,300,2013-10-05 10:15:00
4:35 AM,37.2,28.4,70,30.04,10.0,WNW,27.6,40.3,N/A,,Overcast,300,2013-10-05 10:35:00
4:55 AM,37.0,28.2,70,30.04,10.0,WNW,27.6,36.8,N/A,,Overcast,300,2013-10-05 10:55:00
5:15 AM,37.0,28.6,71,30.04,10.0,WNW,28.8,35.7,N/A,,Overcast,300,2013-10-05 11:15:00
5:35 AM,36.9,28.9,73,30.04,10.0,WNW,33.4,38.0,N/A,,Overcast,300,2013-10-05 11:35:00
5:55 AM,35.8,30.0,80,30.04,7.0,WNW,27.6,34.5,N/A,,Overcast,300,2013-10-05 11:55:00
6:15 AM,34.9,31.1,86,30.05,4.0,WNW,28.8,35.7,N/A,,Overcast,290,2013-10-05 12:15:00
6:35 AM,34.7,32.0,90,30.05,5.0,WNW,24.2,29.9,N/A,,Overcast,290,2013-10-05 12:35:00
6:55 AM,35.4,30.9,84,30.04,10.0,WNW,24.2,33.4,N/A,,Overcast,290,2013-10-05 12:55:00
7:15 AM,36.0,30.2,80,30.04,10.0,WNW,25.3,32.2,N/A,,Overcast,300,2013-10-05 13:15:00
7:35 AM,36.7,29.7,76,30.05,10.0,WNW,23.0,31.1,N/A,,Overcast,300,2013-10-05 13:35:00
7:55 AM,37.4,29.1,72,30.05,10.0,WNW,23.0,33.4,N/A,,Overcast,300,2013-10-05 13:55:00
8:15 AM,38.1,28.2,68,30.04,10.0,WNW,19.6,29.9,N/A,,Overcast,300,2013-10-05 14:15:00
8:35 AM,38.7,28.0,66,30.05,10.0,NW,26.5,31.1,N/A,,Overcast,310,2013-10-05 14:35:00
8:55 AM,39.2,28.4,65,30.06,10.0,WNW,27.6,34.5,N/A,,Overcast,300,2013-10-05 14:55:00
9:15 AM,39.4,28.8,66,30.06,10.0,WNW,27.6,33.4,N/A,,Overcast,300,2013-10-05 15:15:00
9:35 AM,40.1,28.4,63,30.07,10.0,NW,20.7,33.4,N/A,,Overcast,310,2013-10-05 15:35:00
9:55 AM,40.3,28.0,62,30.07,10.0,NW,25.3,35.7,N/A,,Overcast,310,2013-10-05 15:55:00
10:15 AM,40.1,28.0,62,30.08,10.0,NW,25.3,35.7,N/A,,Overcast,310,2013-10-05 16:15:00
10:35 AM,40.1,27.9,62,30.08,10.0,NW,24.2,29.9,N/A,,Overcast,310,2013-10-05 16:35:00
10:55 AM,40.8,27.5,59,30.08,10.0,NW,23.0,27.6,N/A,,Overcast,310,2013-10-05 16:55:00
11:15 AM,41.4,26.6,56,30.07,10.0,NW,23.0,31.1,N/A,,Overcast,310,2013-10-05 17:15:00
11:35 AM,42.1,26.6,54,30.07,10.0,WNW,23.0,28.8,N/A,,Overcast,300,2013-10-05 17:35:00
11:55 AM,43.2,26.1,51,30.07,10.0,WNW,31.1,38.0,N/A,,Overcast,300,2013-10-05 17:55:00
12:15 PM,43.7,25.7,49,30.07,10.0,NW,26.5,34.5,N/A,,Overcast,310,2013-10-05 18:15:00
12:35 PM,43.9,25.9,49,30.07,10.0,NW,25.3,36.8,N/A,,Overcast,310,2013-10-05 18:35:00
12:55 PM,44.1,25.0,47,30.07,10.0,NW,24.2,34.5,N/A,,Overcast,320,2013-10-05 18:55:00
1:15 PM,44.6,25.7,48,30.06,10.0,NW,25.3,40.3,N/A,,Overcast,320,2013-10-05 19:15:00
1:35 PM,44.6,26.1,48,30.05,10.0,NW,21.9,31.1,N/A,,Overcast,310,2013-10-05 19:35:00
1:55 PM,44.6,27.0,50,30.05,10.0,WNW,25.3,33.4,N/A,,Overcast,300,2013-10-05 19:55:00
2:15 PM,44.8,27.0,50,30.05,10.0,NW,24.2,35.7,N/A,,Overcast,310,2013-10-05 20:15:00
2:35 PM,44.6,26.8,50,30.04,10.0,NW,26.5,36.8,N/A,,Overcast,310,2013-10-05 20:35:00
2:55 PM,44.6,26.8,50,30.04,10.0,NW,24.2,39.1,N/A,,Overcast,310,2013-10-05 20:55:00
3:15 PM,44.8,27.7,51,30.04,10.0,NW,20.7,32.2,N/A,,Overcast,310,2013-10-05 21:15:00
3:35 PM,45.7,27.1,48,30.04,10.0,NW,24.2,38.0,N/A,,Overcast,310,2013-10-05 21:35:00
3:55 PM,46.0,26.2,46,30.04,10.0,NW,27.6,34.5,N/A,,Overcast,310,2013-10-05 21:55:00
4:15 PM,47.1,27.0,46,30.04,10.0,NW,21.9,32.2,N/A,,Overcast,310,2013-10-05 22:15:00
4:35 PM,49.1,27.1,43,30.02,10.0,NW,24.2,35.7,N/A,,Overcast,320,2013-10-05 22:35:00
4:55 PM,49.3,27.1,42,30.03,10.0,NW,23.0,34.5,N/A,,Mostly Cloudy,310,2013-10-05 22:55:00
5:15 PM,48.6,25.9,41,30.04,10.0,NW,27.6,35.7,N/A,,Mostly Cloudy,320,2013-10-05 23:15:00
5:35 PM,47.3,25.9,43,30.04,10.0,NNW,21.9,31.1,N/A,,Scattered Clouds,330,2013-10-05 23:35:00
5:55 PM,46.6,26.1,45,30.04,10.0,NW,25.3,28.8,N/A,,Clear,320,2013-10-05 23:55:00
6:15 PM,45.5,26.2,47,30.04,10.0,NW,23.0,28.8,N/A,,Clear,320,2013-10-06 00:15:00
6:35 PM,45.1,26.1,47,30.04,10.0,NW,19.6,27.6,N/A,,Scattered Clouds,320,2013-10-06 00:35:00
6:55 PM,44.6,26.1,48,30.05,10.0,NW,20.7,25.3,N/A,,Mostly Cloudy,320,2013-10-06 00:55:00
7:15 PM,44.1,26.8,51,30.06,10.0,NW,17.3,24.2,N/A,,Mostly Cloudy,320,2013-10-06 01:15:00
7:35 PM,44.1,27.3,52,30.06,10.0,NW,18.4,23.0,N/A,,Overcast,320,2013-10-06 01:35:00
7:55 PM,43.9,27.3,52,30.06,10.0,NW,17.3,26.5,N/A,,Mostly Cloudy,320,2013-10-06 01:55:00
8:15 PM,44.2,27.3,51,30.06,10.0,NW,19.6,26.5,N/A,,Scattered Clouds,320,2013-10-06 02:15:00
8:35 PM,44.6,27.1,50,30.05,10.0,NNW,23.0,36.8,N/A,,Mostly Cloudy,330,2013-10-06 02:35:00
8:55 PM,44.2,27.5,52,30.05,10.0,NNW,31.1,44.9,N/A,,Scattered Clouds,340,2013-10-06 02:55:00
9:15 PM,43.3,28.2,55,30.06,10.0,NNW,29.9,34.5,N/A,,Clear,330,2013-10-06 03:15:00
9:35 PM,42.4,28.4,58,30.06,10.0,NNW,27.6,34.5,N/A,,Clear,330,2013-10-06 03:35:00
9:55 PM,42.1,28.4,58,30.07,10.0,NNW,24.2,34.5,N/A,,Clear,340,2013-10-06 03:55:00
10:15 PM,41.5,28.9,61,30.08,10.0,NNW,19.6,29.9,N/A,,Clear,330,2013-10-06 04:15:00
10:35 PM,40.1,28.9,64,30.09,10.0,NW,17.3,-,N/A,,Clear,320,2013-10-06 04:35:00
10:55 PM,39.4,29.1,67,30.10,10.0,NW,16.1,-,N/A,,Clear,320,2013-10-06 04:55:00
11:15 PM,39.4,29.3,67,30.10,10.0,NW,15.0,21.9,N/A,,Clear,320,2013-10-06 05:15:00
11:35 PM,39.2,29.1,67,30.08,10.0,NW,17.3,23.0,N/A,,Clear,320,2013-10-06 05:35:00
11:55 PM,40.1,29.3,65,30.08,10.0,NW,17.3,23.0,N/A,,Clear,320,2013-10-06 05:55:00